Terminal Aerodrome Forecast
Issued by NWS Greer, SC

Home | Current Version | Previous Version | Text Only | Print | Product List | Glossary On
Versions: 1 2 3 4 5 6 7 8 9 10 11 12 13 14 15 16 17 18 19 20 21 22 23 24 25 26 27 28 29 30 31 32 33 34 35 36 37 38 39 40 41 42 43 44 45 46 47 48 49 50
000
FTUS42 KGSP 221501 AAB
TAFAVL
TAF AMD
KAVL 221501Z 2215/2312 16006KT 5SM -DZ BR OVC007
      TEMPO 2215/2218 2SM -RADZ BR OVC004
     FM222000 16005KT P6SM OVC012
     FM230300 16005KT 3SM -DZ BR OVC005
     FM230800 16004KT 1SM -RA BR OVC002=

USA.gov is the U.S. government's official web portal to all federal, state and local government web resources and services.